createdAt,value
2018-11-02T00:00:05.968Z,13.43
2018-11-02T00:00:19.890Z,13.43
2018-11-02T00:00:33.470Z,13.43
2018-11-02T00:00:45.741Z,12.28
2018-11-02T00:00:58.042Z,12.28
2018-11-02T00:01:11.254Z,12.28
2018-11-02T00:01:23.472Z,12.28
2018-11-02T00:01:35.760Z,12.28
2018-11-02T00:01:48.015Z,12.28
2018-11-02T00:02:00.261Z,12.28
2018-11-02T00:02:13.456Z,12.28
2018-11-02T00:02:25.689Z,12.28
2018-11-02T00:02:37.904Z,12.28
2018-11-02T00:02:50.146Z,12.28
2018-11-02T00:03:02.360Z,12.28
2018-11-02T00:03:14.814Z,12.28
2018-11-02T00:03:27.680Z,12.28
2018-11-02T00:03:39.952Z,12.28
2018-11-02T00:03:52.198Z,12.28
2018-11-02T00:04:04.487Z,12.28
2018-11-02T00:04:16.716Z,12.28
2018-11-02T00:04:29.777Z,12.28
2018-11-02T00:04:42.498Z,12.28
2018-11-02T00:04:54.721Z,12.28
2018-11-02T00:05:07.479Z,12.28
2018-11-02T00:05:19.822Z,12.28
2018-11-02T00:05:32.789Z,12.28
2018-11-02T00:05:45.129Z,12.28
2018-11-02T00:05:57.345Z,12.28
2018-11-02T00:06:10.450Z,12.28
2018-11-02T00:06:24.484Z,12.28
2018-11-02T00:06:38.600Z,12.28
2018-11-02T00:06:50.845Z,12.28
2018-11-02T00:07:03.104Z,12.28
2018-11-02T00:07:15.367Z,12.28
2018-11-02T00:07:27.815Z,12.28
2018-11-02T00:07:40.385Z,12.28
2018-11-02T00:07:53.234Z,12.28
2018-11-02T00:08:05.430Z,12.28
2018-11-02T00:08:17.668Z,12.28
2018-11-02T00:08:29.904Z,12.28
2018-11-02T00:08:42.131Z,12.28
2018-11-02T00:08:55.332Z,12.28
2018-11-02T00:09:07.574Z,12.28
2018-11-02T00:09:19.772Z,12.28
2018-11-02T00:09:31.988Z,12.28
2018-11-02T00:09:44.239Z,12.28
2018-11-02T00:09:57.468Z,12.28
2018-11-02T00:10:09.732Z,12.28
2018-11-02T00:10:21.972Z,12.28
2018-11-02T00:10:34.188Z,12.28
2018-11-02T00:10:46.472Z,10.9
2018-11-02T00:10:58.722Z,10.9
2018-11-02T00:11:11.629Z,10.9
2018-11-02T00:11:23.981Z,10.9
2018-11-02T00:11:36.238Z,10.9
2018-11-02T00:11:48.501Z,10.9
2018-11-02T00:12:00.829Z,10.9
2018-11-02T00:12:14.771Z,10.9
2018-11-02T00:12:29.118Z,10.9
2018-11-02T00:12:42.051Z,10.9
2018-11-02T00:12:54.262Z,10.9
2018-11-02T00:13:06.529Z,10.9
2018-11-02T00:13:19.546Z,10.9
2018-11-02T00:13:31.822Z,10.9
2018-11-02T00:13:44.046Z,10.9
2018-11-02T00:13:56.298Z,10.9
2018-11-02T00:14:08.521Z,10.9
2018-11-02T00:14:21.359Z,10.9
2018-11-02T00:14:33.853Z,10.9
2018-11-02T00:14:46.091Z,10.9
2018-11-02T00:14:58.327Z,10.9
2018-11-02T00:15:10.940Z,10.9
2018-11-02T00:15:23.153Z,10.9
2018-11-02T00:15:36.434Z,10.9
2018-11-02T00:15:48.651Z,10.9
2018-11-02T00:16:00.963Z,10.9
2018-11-02T00:16:13.190Z,10.9
2018-11-02T00:16:25.683Z,10.9
2018-11-02T00:16:38.813Z,10.9
2018-11-02T00:16:51.062Z,10.9
2018-11-02T00:17:03.306Z,10.9
2018-11-02T00:17:15.580Z,10.9
2018-11-02T00:17:27.872Z,10.9
2018-11-02T00:17:40.767Z,10.9
2018-11-02T00:17:53.127Z,10.9
2018-11-02T00:18:05.371Z,10.9
2018-11-02T00:18:17.585Z,10.9
2018-11-02T00:18:29.801Z,10.9
2018-11-02T00:18:42.011Z,10.9
2018-11-02T00:18:54.858Z,10.9
2018-11-02T00:19:07.057Z,10.9
2018-11-02T00:19:19.288Z,10.9
2018-11-02T00:19:31.523Z,10.9
2018-11-02T00:19:43.803Z,10.9
2018-11-02T00:19:56.865Z,10.9
2018-11-02T00:20:09.293Z,10.9
2018-11-02T00:20:21.565Z,10.9
2018-11-02T00:20:33.802Z,10.9
2018-11-02T00:20:46.087Z,11.88
2018-11-02T00:20:58.678Z,11.88
2018-11-02T00:21:11.469Z,11.88
2018-11-02T00:21:23.689Z,11.88
2018-11-02T00:21:35.940Z,11.88
2018-11-02T00:21:48.189Z,11.88
2018-11-02T00:22:00.422Z,11.88
2018-11-02T00:22:13.613Z,11.88
2018-11-02T00:22:25.820Z,11.88
2018-11-02T00:22:38.278Z,11.88
2018-11-02T00:22:50.472Z,11.88
2018-11-02T00:23:03.182Z,11.88
2018-11-02T00:23:16.287Z,11.88
2018-11-02T00:23:28.500Z,11.88
2018-11-02T00:23:40.777Z,11.88
2018-11-02T00:23:53.033Z,11.88
2018-11-02T00:24:05.270Z,11.88
2018-11-02T00:24:17.707Z,11.88
2018-11-02T00:24:30.555Z,11.88
2018-11-02T00:24:42.782Z,11.88
2018-11-02T00:24:55.039Z,11.88
2018-11-02T00:25:07.521Z,11.88
2018-11-02T00:25:19.732Z,11.88
2018-11-02T00:25:32.640Z,11.88
2018-11-02T00:25:44.927Z,11.88
2018-11-02T00:25:57.157Z,11.88
2018-11-02T00:26:09.419Z,11.88
2018-11-02T00:26:21.680Z,11.88
2018-11-02T00:26:34.708Z,11.88
2018-11-02T00:26:46.955Z,11.88
2018-11-02T00:26:59.201Z,11.88
2018-11-02T00:27:11.414Z,11.88
2018-11-02T00:27:23.811Z,11.88
2018-11-02T00:27:35.996Z,11.88
2018-11-02T00:27:48.952Z,11.88
2018-11-02T00:28:01.183Z,11.88
2018-11-02T00:28:13.388Z,11.88
2018-11-02T00:28:25.627Z,11.88
2018-11-02T00:28:37.903Z,11.88
2018-11-02T00:28:51.112Z,11.88
2018-11-02T00:29:03.496Z,11.88
2018-11-02T00:29:15.818Z,11.88
2018-11-02T00:29:28.067Z,11.88
2018-11-02T00:29:40.365Z,11.88
2018-11-02T00:29:53.465Z,11.88
2018-11-02T00:30:05.684Z,11.88
2018-11-02T00:30:17.970Z,11.88
2018-11-02T00:30:30.260Z,11.88
2018-11-02T00:30:42.510Z,11.88
2018-11-02T00:30:54.791Z,12.07
2018-11-02T00:31:07.928Z,12.07
2018-11-02T00:31:20.712Z,12.07
2018-11-02T00:31:32.965Z,12.07
2018-11-02T00:31:45.810Z,12.07
2018-11-02T00:31:59.512Z,12.07
2018-11-02T00:32:13.835Z,12.07
2018-11-02T00:32:26.135Z,12.07
2018-11-02T00:32:38.401Z,12.07
2018-11-02T00:32:50.651Z,12.07
2018-11-02T00:33:02.863Z,12.07
2018-11-02T00:33:15.735Z,12.07
2018-11-02T00:33:28.006Z,12.07
2018-11-02T00:33:40.225Z,12.07
2018-11-02T00:33:52.443Z,12.07
2018-11-02T00:34:04.678Z,12.07
2018-11-02T00:34:17.648Z,12.07
2018-11-02T00:34:30.187Z,12.07
2018-11-02T00:34:42.423Z,12.07
2018-11-02T00:34:54.636Z,12.07
2018-11-02T00:35:06.865Z,12.07
2018-11-02T00:35:19.109Z,12.07
2018-11-02T00:35:32.080Z,12.07
2018-11-02T00:35:44.417Z,12.07
2018-11-02T00:35:56.676Z,12.07
2018-11-02T00:36:08.979Z,12.07
2018-11-02T00:36:21.262Z,12.07
2018-11-02T00:36:34.283Z,12.07
2018-11-02T00:36:46.521Z,12.07
2018-11-02T00:36:58.790Z,12.07
2018-11-02T00:37:11.035Z,12.07
2018-11-02T00:37:23.346Z,12.07
2018-11-02T00:37:36.379Z,12.07
2018-11-02T00:37:48.885Z,12.07
2018-11-02T00:38:01.093Z,12.07
2018-11-02T00:38:13.343Z,12.07
2018-11-02T00:38:25.598Z,12.07
2018-11-02T00:38:37.814Z,12.07
2018-11-02T00:38:50.880Z,12.07
2018-11-02T00:39:03.148Z,12.07
2018-11-02T00:39:15.379Z,12.07
2018-11-02T00:39:27.772Z,12.07
2018-11-02T00:39:39.995Z,12.07
2018-11-02T00:39:53.346Z,12.07
2018-11-02T00:40:05.592Z,12.07
2018-11-02T00:40:17.857Z,12.07
2018-11-02T00:40:30.095Z,12.07
2018-11-02T00:40:42.308Z,12.07
2018-11-02T00:40:54.902Z,10.62
2018-11-02T00:41:07.405Z,10.62
2018-11-02T00:41:19.653Z,10.62
2018-11-02T00:41:31.900Z,10.62
2018-11-02T00:41:44.115Z,10.62
2018-11-02T00:41:56.431Z,10.62
2018-11-02T00:42:09.597Z,10.62
2018-11-02T00:42:21.850Z,10.62
2018-11-02T00:42:34.105Z,10.62
2018-11-02T00:42:46.305Z,10.62
2018-11-02T00:42:58.616Z,10.62
2018-11-02T00:43:11.730Z,10.62
2018-11-02T00:43:24.118Z,10.62
2018-11-02T00:43:36.334Z,10.62
2018-11-02T00:43:48.809Z,10.62
2018-11-02T00:44:02.323Z,10.62
2018-11-02T00:44:18.624Z,10.62
2018-11-02T00:44:30.888Z,10.62
2018-11-02T00:44:43.135Z,10.62
2018-11-02T00:44:55.389Z,10.62
2018-11-02T00:45:07.645Z,10.62
2018-11-02T00:45:20.104Z,10.62
2018-11-02T00:45:32.894Z,10.62
2018-11-02T00:45:45.119Z,10.62
2018-11-02T00:45:57.387Z,10.62
2018-11-02T00:46:09.794Z,10.62
2018-11-02T00:46:22.011Z,10.62
2018-11-02T00:46:35.134Z,10.62
2018-11-02T00:46:47.359Z,10.62
2018-11-02T00:46:59.614Z,10.62
2018-11-02T00:47:11.858Z,10.62
2018-11-02T00:47:24.081Z,10.62
2018-11-02T00:47:37.408Z,10.62
2018-11-02T00:47:49.648Z,10.62
2018-11-02T00:48:01.910Z,10.62
2018-11-02T00:48:14.140Z,10.62
2018-11-02T00:48:26.370Z,10.62
2018-11-02T00:48:38.974Z,10.62
2018-11-02T00:48:51.793Z,10.62
2018-11-02T00:49:04.022Z,10.62
2018-11-02T00:49:16.241Z,10.62
2018-11-02T00:49:28.485Z,10.62
2018-11-02T00:49:42.165Z,10.62
2018-11-02T00:49:55.092Z,10.62
2018-11-02T00:50:07.294Z,10.62
2018-11-02T00:50:19.551Z,10.62
2018-11-02T00:50:31.786Z,10.62
2018-11-02T00:50:44.048Z,10.62
2018-11-02T00:50:57.212Z,12.18
2018-11-02T00:51:09.531Z,12.18
2018-11-02T00:51:21.756Z,12.18
2018-11-02T00:51:33.971Z,12.18
2018-11-02T00:51:46.188Z,12.18
2018-11-02T00:51:58.984Z,12.18
2018-11-02T00:52:11.607Z,12.18
2018-11-02T00:52:23.809Z,12.18
2018-11-02T00:52:36.036Z,12.18
2018-11-02T00:52:48.239Z,12.18
2018-11-02T00:53:00.615Z,12.18
2018-11-02T00:53:13.747Z,12.18
2018-11-02T00:53:26.401Z,12.18
2018-11-02T00:53:38.678Z,12.18
2018-11-02T00:53:50.972Z,12.18
2018-11-02T00:54:03.205Z,12.18
2018-11-02T00:54:16.477Z,12.18
2018-11-02T00:54:28.691Z,12.18
2018-11-02T00:54:40.912Z,12.18
2018-11-02T00:54:53.357Z,12.18
2018-11-02T00:55:05.735Z,12.18
2018-11-02T00:55:18.420Z,12.18
2018-11-02T00:55:31.161Z,12.18
2018-11-02T00:55:43.424Z,12.18
2018-11-02T00:55:55.688Z,12.18
2018-11-02T00:56:08.033Z,12.18
2018-11-02T00:56:20.279Z,12.18
2018-11-02T00:56:33.241Z,12.18
2018-11-02T00:56:45.438Z,12.18
2018-11-02T00:56:57.659Z,12.18
2018-11-02T00:57:09.896Z,12.18
2018-11-02T00:57:22.157Z,12.18
2018-11-02T00:57:34.974Z,12.18
2018-11-02T00:57:47.259Z,12.18
2018-11-02T00:57:59.574Z,12.18
2018-11-02T00:58:12.020Z,12.18
2018-11-02T00:58:24.345Z,12.18
2018-11-02T00:58:37.042Z,12.18
2018-11-02T00:58:49.827Z,12.18
2018-11-02T00:59:02.060Z,12.18
2018-11-02T00:59:14.331Z,12.18
2018-11-02T00:59:26.779Z,12.18
2018-11-02T00:59:39.031Z,12.18
2018-11-02T00:59:52.335Z,12.18
2018-11-02T01:00:04.646Z,12.18
2018-11-02T01:00:16.890Z,12.18
2018-11-02T01:00:29.618Z,12.18
2018-11-02T01:00:41.887Z,12.18
2018-11-02T01:00:55.221Z,12.62
2018-11-02T01:01:07.483Z,12.62
2018-11-02T01:01:19.706Z,12.62
2018-11-02T01:01:31.937Z,12.62
2018-11-02T01:01:44.180Z,12.62
2018-11-02T01:01:56.661Z,12.62
2018-11-02T01:02:09.652Z,12.62
2018-11-02T01:02:21.899Z,12.62
2018-11-02T01:02:34.169Z,12.62
2018-11-02T01:02:46.398Z,12.62
2018-11-02T01:02:58.628Z,12.62
2018-11-02T01:03:12.079Z,12.62
2018-11-02T01:03:24.367Z,12.62
2018-11-02T01:03:36.702Z,12.62
2018-11-02T01:03:48.977Z,12.62
2018-11-02T01:04:01.237Z,12.62
2018-11-02T01:04:14.545Z,12.62
2018-11-02T01:04:26.774Z,12.62
2018-11-02T01:04:39.756Z,12.62
2018-11-02T01:04:52.576Z,12.62
2018-11-02T01:05:04.830Z,12.62
2018-11-02T01:05:17.400Z,12.62
2018-11-02T01:05:30.185Z,12.62
2018-11-02T01:05:43.009Z,12.62
2018-11-02T01:05:55.786Z,12.62
2018-11-02T01:06:08.018Z,12.62
2018-11-02T01:06:20.285Z,12.62
2018-11-02T01:06:33.651Z,12.62
2018-11-02T01:06:45.875Z,12.62
2018-11-02T01:06:58.115Z,12.62
2018-11-02T01:07:10.357Z,12.62
2018-11-02T01:07:22.573Z,12.62
2018-11-02T01:07:35.757Z,12.62
2018-11-02T01:07:47.979Z,12.62
2018-11-02T01:08:00.251Z,12.62
2018-11-02T01:08:12.466Z,12.62
2018-11-02T01:08:24.740Z,12.62
2018-11-02T01:08:37.244Z,12.62
2018-11-02T01:08:50.145Z,12.62
2018-11-02T01:09:02.380Z,12.62
2018-11-02T01:09:14.686Z,12.62
2018-11-02T01:09:26.978Z,12.62
2018-11-02T01:09:39.224Z,12.62
2018-11-02T01:09:52.127Z,12.62
2018-11-02T01:10:04.374Z,12.62
2018-11-02T01:10:16.595Z,12.62
2018-11-02T01:10:28.828Z,12.62
2018-11-02T01:10:41.139Z,12.62
2018-11-02T01:10:54.330Z,8.73
2018-11-02T01:11:06.603Z,8.73
2018-11-02T01:11:18.859Z,8.73
2018-11-02T01:11:31.095Z,8.73
2018-11-02T01:11:43.280Z,8.73
2018-11-02T01:11:55.529Z,8.73
2018-11-02T01:12:08.667Z,8.73
2018-11-02T01:12:20.922Z,8.73
2018-11-02T01:12:33.322Z,8.73
2018-11-02T01:12:45.565Z,8.73
2018-11-02T01:12:57.793Z,8.73
2018-11-02T01:13:10.905Z,8.73
2018-11-02T01:13:23.142Z,8.73
2018-11-02T01:13:35.403Z,8.73
2018-11-02T01:13:47.598Z,8.73
2018-11-02T01:13:59.813Z,8.73
2018-11-02T01:14:12.660Z,8.73
2018-11-02T01:14:25.120Z,8.73
2018-11-02T01:14:37.458Z,8.73
2018-11-02T01:14:49.675Z,8.73
2018-11-02T01:15:01.918Z,8.73
2018-11-02T01:15:14.454Z,8.73
2018-11-02T01:15:27.562Z,8.73
2018-11-02T01:15:39.769Z,8.73
2018-11-02T01:15:52.001Z,8.73
2018-11-02T01:16:04.205Z,8.73
2018-11-02T01:16:16.419Z,8.73
2018-11-02T01:16:30.265Z,8.73
2018-11-02T01:16:43.733Z,8.73
2018-11-02T01:16:57.343Z,8.73
2018-11-02T01:17:09.546Z,8.73
2018-11-02T01:17:21.928Z,8.73
2018-11-02T01:17:34.872Z,8.73
2018-11-02T01:17:47.125Z,8.73
2018-11-02T01:17:59.583Z,8.73
2018-11-02T01:18:11.833Z,8.73
2018-11-02T01:18:24.047Z,8.73
2018-11-02T01:18:36.317Z,8.73
2018-11-02T01:18:49.318Z,8.73
2018-11-02T01:19:01.558Z,8.73
2018-11-02T01:19:13.858Z,8.73
2018-11-02T01:19:26.097Z,8.73
2018-11-02T01:19:38.355Z,8.73
2018-11-02T01:19:51.283Z,8.73
2018-11-02T01:20:03.551Z,8.73
2018-11-02T01:20:15.811Z,8.73
2018-11-02T01:20:28.023Z,8.73
2018-11-02T01:20:40.234Z,8.73
2018-11-02T01:20:53.342Z,8.65
2018-11-02T01:21:05.687Z,8.65
2018-11-02T01:21:17.956Z,8.65
2018-11-02T01:21:30.172Z,8.65
2018-11-02T01:21:42.428Z,8.65
2018-11-02T01:21:54.702Z,8.65
2018-11-02T01:22:08.211Z,8.65
2018-11-02T01:22:20.462Z,8.65
2018-11-02T01:22:32.721Z,8.65
2018-11-02T01:22:45.149Z,8.65
2018-11-02T01:22:57.424Z,8.65
2018-11-02T01:23:10.466Z,8.65
2018-11-02T01:23:22.686Z,8.65
2018-11-02T01:23:34.928Z,8.65
2018-11-02T01:23:47.179Z,8.65
2018-11-02T01:23:59.426Z,8.65
2018-11-02T01:24:13.448Z,8.65
2018-11-02T01:24:25.694Z,8.65
2018-11-02T01:24:38.177Z,8.65
2018-11-02T01:24:50.397Z,8.65
2018-11-02T01:25:02.722Z,8.65
2018-11-02T01:25:15.026Z,8.65
2018-11-02T01:25:27.996Z,8.65
2018-11-02T01:25:40.234Z,8.65
2018-11-02T01:25:52.558Z,8.65
2018-11-02T01:26:04.784Z,8.65
2018-11-02T01:26:17.129Z,8.65
2018-11-02T01:26:30.152Z,8.65
2018-11-02T01:26:42.357Z,8.65
2018-11-02T01:26:54.575Z,8.65
2018-11-02T01:27:06.784Z,8.65
2018-11-02T01:27:19.041Z,8.65
2018-11-02T01:27:32.293Z,8.65
2018-11-02T01:27:44.542Z,8.65
2018-11-02T01:27:56.783Z,8.65
2018-11-02T01:28:09.087Z,8.65
2018-11-02T01:28:21.304Z,8.65
2018-11-02T01:28:33.613Z,8.65
2018-11-02T01:28:46.669Z,8.65
2018-11-02T01:28:59.133Z,8.65
2018-11-02T01:29:11.362Z,8.65
2018-11-02T01:29:23.594Z,8.65
2018-11-02T01:29:35.885Z,8.65
2018-11-02T01:29:49.308Z,8.65
2018-11-02T01:30:01.506Z,8.65
2018-11-02T01:30:13.760Z,8.65
2018-11-02T01:30:25.975Z,8.65
2018-11-02T01:30:38.181Z,8.65
2018-11-02T01:30:51.171Z,11.41
2018-11-02T01:31:03.654Z,11.41
2018-11-02T01:31:15.873Z,11.41
2018-11-02T01:31:28.126Z,11.41
2018-11-02T01:31:40.377Z,11.41
2018-11-02T01:31:52.599Z,11.41
2018-11-02T01:32:05.662Z,11.41
2018-11-02T01:32:17.899Z,11.41
2018-11-02T01:32:30.117Z,11.41
2018-11-02T01:32:42.378Z,11.41
2018-11-02T01:32:54.621Z,11.41
2018-11-02T01:33:07.813Z,11.41
2018-11-02T01:33:20.037Z,11.41
2018-11-02T01:33:32.264Z,11.41
2018-11-02T01:33:44.525Z,11.41
2018-11-02T01:33:56.778Z,11.41
2018-11-02T01:34:09.624Z,11.41
2018-11-02T01:34:22.195Z,11.41
2018-11-02T01:34:34.424Z,11.41
2018-11-02T01:34:46.636Z,11.41
2018-11-02T01:34:58.840Z,11.41
2018-11-02T01:35:11.092Z,11.41
2018-11-02T01:35:24.144Z,11.41
2018-11-02T01:35:36.368Z,11.41
2018-11-02T01:35:48.754Z,11.41
2018-11-02T01:36:01.051Z,11.41
2018-11-02T01:36:13.275Z,11.41
2018-11-02T01:36:26.532Z,11.41
2018-11-02T01:36:38.776Z,11.41
2018-11-02T01:36:51.177Z,11.41
2018-11-02T01:37:03.448Z,11.41
2018-11-02T01:37:15.701Z,11.41
2018-11-02T01:37:28.707Z,11.41
2018-11-02T01:37:41.707Z,11.41
2018-11-02T01:37:53.941Z,11.41
2018-11-02T01:38:06.161Z,11.41
2018-11-02T01:38:18.425Z,11.41
2018-11-02T01:38:30.653Z,11.41
2018-11-02T01:38:43.747Z,11.41
2018-11-02T01:38:56.010Z,11.41
2018-11-02T01:39:08.205Z,11.41
2018-11-02T01:39:20.470Z,11.41
2018-11-02T01:39:32.872Z,11.41
2018-11-02T01:39:45.875Z,11.41
2018-11-02T01:39:58.110Z,11.41
2018-11-02T01:40:10.335Z,11.41
2018-11-02T01:40:22.742Z,11.41
2018-11-02T01:40:34.976Z,11.41
2018-11-02T01:40:47.485Z,11.41
2018-11-02T01:41:00.321Z,11.1
2018-11-02T01:41:12.568Z,11.1
2018-11-02T01:41:24.848Z,11.1
2018-11-02T01:41:37.053Z,11.1
2018-11-02T01:41:49.302Z,11.1
2018-11-02T01:42:02.529Z,11.1
2018-11-02T01:42:14.776Z,11.1
2018-11-02T01:42:26.994Z,11.1
2018-11-02T01:42:39.211Z,11.1
2018-11-02T01:42:51.428Z,11.1
2018-11-02T01:43:04.557Z,11.1
2018-11-02T01:43:16.795Z,11.1
2018-11-02T01:43:29.046Z,11.1
2018-11-02T01:43:41.357Z,11.1
2018-11-02T01:43:53.627Z,11.1
2018-11-02T01:44:05.870Z,11.1
2018-11-02T01:44:18.965Z,11.1
2018-11-02T01:44:31.263Z,11.1
2018-11-02T01:44:43.530Z,11.1
2018-11-02T01:44:55.767Z,11.1
2018-11-02T01:45:08.047Z,11.1
2018-11-02T01:45:21.375Z,11.1
2018-11-02T01:45:33.596Z,11.1
2018-11-02T01:45:45.842Z,11.1
2018-11-02T01:45:58.068Z,11.1
2018-11-02T01:46:10.274Z,11.1
2018-11-02T01:46:23.735Z,11.1
2018-11-02T01:46:35.984Z,11.1
2018-11-02T01:46:48.409Z,11.1
2018-11-02T01:47:00.636Z,11.1
2018-11-02T01:47:12.879Z,11.1
2018-11-02T01:47:25.093Z,11.1
2018-11-02T01:47:38.367Z,11.1
2018-11-02T01:47:50.613Z,11.1
2018-11-02T01:48:02.846Z,11.1
2018-11-02T01:48:15.075Z,11.1
2018-11-02T01:48:27.274Z,11.1
2018-11-02T01:48:40.385Z,11.1
2018-11-02T01:48:52.608Z,11.1
2018-11-02T01:49:04.875Z,11.1
2018-11-02T01:49:17.163Z,11.1
2018-11-02T01:49:29.440Z,11.1
2018-11-02T01:49:42.709Z,11.1
2018-11-02T01:49:54.972Z,11.1
2018-11-02T01:50:07.257Z,11.1
2018-11-02T01:50:19.519Z,11.1
2018-11-02T01:50:31.716Z,11.1
2018-11-02T01:50:43.999Z,11.1
2018-11-02T01:50:57.037Z,11.39
2018-11-02T01:51:09.334Z,11.39
2018-11-02T01:51:21.577Z,11.39
2018-11-02T01:51:33.859Z,11.39
2018-11-02T01:51:46.116Z,11.39
2018-11-02T01:51:59.263Z,11.39
2018-11-02T01:52:11.491Z,11.39
2018-11-02T01:52:23.732Z,11.39
2018-11-02T01:52:36.030Z,11.39
2018-11-02T01:52:48.313Z,11.39
2018-11-02T01:53:01.630Z,11.39
2018-11-02T01:53:13.957Z,11.39
2018-11-02T01:53:26.334Z,11.39
2018-11-02T01:53:38.667Z,11.39
2018-11-02T01:53:50.951Z,11.39
2018-11-02T01:54:03.206Z,11.39
2018-11-02T01:54:16.475Z,11.39
2018-11-02T01:54:28.727Z,11.39
2018-11-02T01:54:40.985Z,11.39
2018-11-02T01:54:53.185Z,11.39
2018-11-02T01:55:05.508Z,11.39
2018-11-02T01:55:18.564Z,11.39
2018-11-02T01:55:30.785Z,11.39
2018-11-02T01:55:42.996Z,11.39
2018-11-02T01:55:55.217Z,11.39
2018-11-02T01:56:07.428Z,11.39
2018-11-02T01:56:20.483Z,11.39
2018-11-02T01:56:32.833Z,11.39
2018-11-02T01:56:45.162Z,11.39
2018-11-02T01:56:57.380Z,11.39
2018-11-02T01:57:09.635Z,11.39
2018-11-02T01:57:21.855Z,11.39
2018-11-02T01:57:34.821Z,11.39
2018-11-02T01:57:47.057Z,11.39
2018-11-02T01:57:59.310Z,11.39
2018-11-02T01:58:11.662Z,11.39
2018-11-02T01:58:23.862Z,11.39
2018-11-02T01:58:36.914Z,11.39
2018-11-02T01:58:49.145Z,11.39
2018-11-02T01:59:01.374Z,11.39
2018-11-02T01:59:13.619Z,11.39
2018-11-02T01:59:25.878Z,11.39
2018-11-02T01:59:38.666Z,11.39
2018-11-02T01:59:51.176Z,11.39
2018-11-02T02:00:03.444Z,11.39
2018-11-02T02:00:15.702Z,11.39
2018-11-02T02:00:28.145Z,11.39
2018-11-02T02:00:40.383Z,11.39
2018-11-02T02:00:53.474Z,14.79
2018-11-02T02:01:05.738Z,14.79
2018-11-02T02:01:17.962Z,14.79
2018-11-02T02:01:30.172Z,14.79
2018-11-02T02:01:42.504Z,14.79
2018-11-02T02:01:55.673Z,14.79
2018-11-02T02:02:07.944Z,14.79
2018-11-02T02:02:20.230Z,14.79
2018-11-02T02:02:32.430Z,14.79
2018-11-02T02:02:44.631Z,14.79
2018-11-02T02:02:57.327Z,14.79
2018-11-02T02:03:10.128Z,14.79
2018-11-02T02:03:22.387Z,14.79
2018-11-02T02:03:34.585Z,14.79
2018-11-02T02:03:46.804Z,14.79
2018-11-02T02:03:59.036Z,14.79
2018-11-02T02:04:12.307Z,14.79
2018-11-02T02:04:24.574Z,14.79
2018-11-02T02:04:36.971Z,14.79
2018-11-02T02:04:49.237Z,14.79
2018-11-02T02:05:01.468Z,14.79
2018-11-02T02:05:14.514Z,14.79
2018-11-02T02:05:26.742Z,14.79
2018-11-02T02:05:38.950Z,14.79
2018-11-02T02:05:51.158Z,14.79
2018-11-02T02:06:03.532Z,14.79
2018-11-02T02:06:15.971Z,14.79
2018-11-02T02:06:28.615Z,14.79
2018-11-02T02:06:40.883Z,14.79
2018-11-02T02:06:53.197Z,14.79
2018-11-02T02:07:05.494Z,14.79
2018-11-02T02:07:17.689Z,14.79
2018-11-02T02:07:30.795Z,14.79
2018-11-02T02:07:43.020Z,14.79
2018-11-02T02:07:55.239Z,14.79
2018-11-02T02:08:07.513Z,14.79
2018-11-02T02:08:19.744Z,14.79
2018-11-02T02:08:32.795Z,14.79
2018-11-02T02:08:44.998Z,14.79
2018-11-02T02:08:57.249Z,14.79
2018-11-02T02:09:09.445Z,14.79
2018-11-02T02:09:21.688Z,14.79
2018-11-02T02:09:34.161Z,14.79
2018-11-02T02:09:46.705Z,14.79
2018-11-02T02:09:59.145Z,14.79
2018-11-02T02:10:11.360Z,14.79
2018-11-02T02:10:23.636Z,14.79
2018-11-02T02:10:35.837Z,14.79
2018-11-02T02:10:48.885Z,14.79
2018-11-02T02:11:01.093Z,10.77
2018-11-02T02:11:13.412Z,10.77
2018-11-02T02:11:25.642Z,10.77
2018-11-02T02:11:37.867Z,10.77
2018-11-02T02:11:50.759Z,10.77
2018-11-02T02:12:02.994Z,10.77
2018-11-02T02:12:15.275Z,10.77
2018-11-02T02:12:27.518Z,10.77
2018-11-02T02:12:39.880Z,10.77
2018-11-02T02:12:52.131Z,10.77
2018-11-02T02:13:05.703Z,10.77
2018-11-02T02:13:19.382Z,10.77
2018-11-02T02:13:33.036Z,10.77
2018-11-02T02:13:45.232Z,10.77
2018-11-02T02:13:57.450Z,10.77
2018-11-02T02:14:10.478Z,10.77
2018-11-02T02:14:22.723Z,10.77
2018-11-02T02:14:34.974Z,10.77
2018-11-02T02:14:47.246Z,10.77
2018-11-02T02:14:59.473Z,10.77
2018-11-02T02:15:12.790Z,10.77
2018-11-02T02:15:25.013Z,10.77
2018-11-02T02:15:37.233Z,10.77
2018-11-02T02:15:49.473Z,10.77
2018-11-02T02:16:01.764Z,10.77
2018-11-02T02:16:14.705Z,10.77
2018-11-02T02:16:27.233Z,10.77
2018-11-02T02:16:39.473Z,10.77
2018-11-02T02:16:51.728Z,10.77
2018-11-02T02:17:03.975Z,10.77
2018-11-02T02:17:16.258Z,10.77
2018-11-02T02:17:29.428Z,10.77
2018-11-02T02:17:41.653Z,10.77
2018-11-02T02:17:53.905Z,10.77
2018-11-02T02:18:06.197Z,10.77
2018-11-02T02:18:18.462Z,10.77
2018-11-02T02:18:31.712Z,10.77
2018-11-02T02:18:44.109Z,10.77
2018-11-02T02:18:56.328Z,10.77
2018-11-02T02:19:08.573Z,10.77
2018-11-02T02:19:20.845Z,10.77
2018-11-02T02:19:33.559Z,10.77
2018-11-02T02:19:46.124Z,10.77
2018-11-02T02:19:58.368Z,10.77
2018-11-02T02:20:10.639Z,10.77
2018-11-02T02:20:22.915Z,10.77
2018-11-02T02:20:35.207Z,10.77
2018-11-02T02:20:48.444Z,10.77
2018-11-02T02:21:00.683Z,9.19
2018-11-02T02:21:13.058Z,9.19
2018-11-02T02:21:25.263Z,9.19
2018-11-02T02:21:37.473Z,9.19
2018-11-02T02:21:50.447Z,9.19
2018-11-02T02:22:02.749Z,9.19
2018-11-02T02:22:15.066Z,9.19
2018-11-02T02:22:27.301Z,9.19
2018-11-02T02:22:39.665Z,9.19
2018-11-02T02:22:54.355Z,9.19
2018-11-02T02:23:06.799Z,9.19
2018-11-02T02:23:19.060Z,9.19
2018-11-02T02:23:31.352Z,9.19
2018-11-02T02:23:43.596Z,9.19
2018-11-02T02:23:55.870Z,9.19
2018-11-02T02:24:08.741Z,9.19
2018-11-02T02:24:20.970Z,9.19
2018-11-02T02:24:33.298Z,9.19
2018-11-02T02:24:45.575Z,9.19
2018-11-02T02:24:57.944Z,9.19
2018-11-02T02:25:11.560Z,9.19
2018-11-02T02:25:23.803Z,9.19
2018-11-02T02:25:36.015Z,9.19
2018-11-02T02:25:48.216Z,9.19
2018-11-02T02:26:00.435Z,9.19
2018-11-02T02:26:13.727Z,9.19
2018-11-02T02:26:26.013Z,9.19
2018-11-02T02:26:38.317Z,9.19
2018-11-02T02:26:50.548Z,9.19
2018-11-02T02:27:02.814Z,9.19
2018-11-02T02:27:15.099Z,9.19
2018-11-02T02:27:28.173Z,9.19
2018-11-02T02:27:40.420Z,9.19
2018-11-02T02:27:52.648Z,9.19
2018-11-02T02:28:04.900Z,9.19
2018-11-02T02:28:17.109Z,9.19
2018-11-02T02:28:30.047Z,9.19
2018-11-02T02:28:42.267Z,9.19
2018-11-02T02:28:55.020Z,9.19
2018-11-02T02:29:07.219Z,9.19
2018-11-02T02:29:19.438Z,9.19
2018-11-02T02:29:32.711Z,9.19
2018-11-02T02:29:45.116Z,9.19
2018-11-02T02:29:57.328Z,9.19
2018-11-02T02:30:09.596Z,9.19
2018-11-02T02:30:21.851Z,9.19
2018-11-02T02:30:34.126Z,9.19
2018-11-02T02:30:47.167Z,9.19
2018-11-02T02:30:59.421Z,11.2
2018-11-02T02:31:11.699Z,11.2
2018-11-02T02:31:23.957Z,11.2
2018-11-02T02:31:36.200Z,11.2
2018-11-02T02:31:49.485Z,11.2
2018-11-02T02:32:01.714Z,11.2
2018-11-02T02:32:13.972Z,11.2
2018-11-02T02:32:26.306Z,11.2
2018-11-02T02:32:38.589Z,11.2
2018-11-02T02:32:51.450Z,11.2
2018-11-02T02:33:03.985Z,11.2
2018-11-02T02:33:16.303Z,11.2
2018-11-02T02:33:28.556Z,11.2
2018-11-02T02:33:40.795Z,11.2
2018-11-02T02:33:53.071Z,11.2
2018-11-02T02:34:06.280Z,11.2
2018-11-02T02:34:18.551Z,11.2
2018-11-02T02:34:30.867Z,11.2
2018-11-02T02:34:43.102Z,11.2
2018-11-02T02:34:55.335Z,11.2
2018-11-02T02:35:08.363Z,11.2
2018-11-02T02:35:20.651Z,11.2
2018-11-02T02:35:33.071Z,11.2
2018-11-02T02:35:45.419Z,11.2
2018-11-02T02:35:57.643Z,11.2
2018-11-02T02:36:10.690Z,11.2
2018-11-02T02:36:23.402Z,11.2
2018-11-02T02:36:35.711Z,11.2
2018-11-02T02:36:47.978Z,11.2
2018-11-02T02:37:00.286Z,11.2
2018-11-02T02:37:12.670Z,11.2
2018-11-02T02:37:25.907Z,11.2
2018-11-02T02:37:38.418Z,11.2
2018-11-02T02:37:50.793Z,11.2
2018-11-02T02:38:03.101Z,11.2
2018-11-02T02:38:15.361Z,11.2
2018-11-02T02:38:28.413Z,11.2
2018-11-02T02:38:40.828Z,11.2
2018-11-02T02:38:53.117Z,11.2
2018-11-02T02:39:05.408Z,11.2
2018-11-02T02:39:17.705Z,11.2
2018-11-02T02:39:30.490Z,11.2
2018-11-02T02:39:43.232Z,11.2
2018-11-02T02:39:55.732Z,11.2
2018-11-02T02:40:07.985Z,11.2
2018-11-02T02:40:20.242Z,11.2
2018-11-02T02:40:32.462Z,11.2
2018-11-02T02:40:45.751Z,11.2
2018-11-02T02:40:58.089Z,7.46
2018-11-02T02:41:10.335Z,7.46
2018-11-02T02:41:22.537Z,7.46
2018-11-02T02:41:34.800Z,7.46
2018-11-02T02:41:47.886Z,7.46
2018-11-02T02:42:00.217Z,7.46
2018-11-02T02:42:12.494Z,7.46
2018-11-02T02:42:24.761Z,7.46
2018-11-02T02:42:36.962Z,7.46